Time;durP1;ratioP1;P1;durP2;ratioP2;P2;SDS_P1;SDS_P2;PMS_P1;PMS_P2;Temp;Humidity;BMP_temperature;BMP_pressure;BME280_temperature;BME280_humidity;BME280_pressure;Samples;Min_cycle;Max_cycle;Signal;HPM_P1;HPM_P2
2023/06/11 00:02:24;;;;;;;10.55;9.45;;;;;;;19.54;61.16;98994.31;5009750;28;20494;-80
2023/06/11 00:04:50;;;;;;;11.57;10.23;;;;;;;19.80;60.57;99003.50;5010433;28;20363;-80
2023/06/11 00:07:17;;;;;;;11.00;9.93;;;;;;;19.75;60.53;99000.88;5004930;28;20046;-80
2023/06/11 00:09:43;;;;;;;10.63;9.52;;;;;;;19.74;60.41;99010.13;4984933;28;20041;-81
2023/06/11 00:12:08;;;;;;;10.93;9.82;;;;;;;19.76;61.11;99007.13;5006899;28;20040;-81
2023/06/11 00:14:34;;;;;;;10.63;9.23;;;;;;;19.59;60.95;98999.63;5001024;28;20474;-81
2023/06/11 00:16:59;;;;;;;10.55;9.57;;;;;;;19.57;61.21;99003.75;5000460;28;20029;-80
2023/06/11 00:19:28;;;;;;;10.10;9.13;;;;;;;19.59;61.10;99002.34;5003476;28;20030;-80
2023/06/11 00:21:58;;;;;;;11.40;10.32;;;;;;;19.49;61.42;99005.25;4999923;28;20032;-81
2023/06/11 00:24:24;;;;;;;12.70;10.00;;;;;;;19.39;61.43;98992.72;5004765;28;20038;-81
2023/06/11 00:26:50;;;;;;;11.98;10.27;;;;;;;19.25;62.07;99005.44;5003365;28;20049;-81
2023/06/11 00:29:15;;;;;;;11.20;9.07;;;;;;;19.43;61.65;99001.84;5003477;28;20033;-81
2023/06/11 00:31:40;;;;;;;12.10;10.25;;;;;;;18.65;64.73;98999.22;5003396;28;20054;-81
2023/06/11 00:34:06;;;;;;;10.95;9.85;;;;;;;19.18;62.40;98991.50;4989242;28;20033;-81
2023/06/11 00:36:33;;;;;;;11.55;10.40;;;;;;;19.11;62.69;98996.50;5006587;28;21349;-81
2023/06/11 00:38:58;;;;;;;10.57;9.57;;;;;;;19.39;61.95;98989.22;5006113;28;20087;-81
2023/06/11 00:41:30;;;;;;;11.18;10.07;;;;;;;19.35;61.60;99002.53;4970686;28;20026;-80
2023/06/11 00:43:56;;;;;;;11.10;9.95;;;;;;;19.39;61.35;98990.03;5006708;28;20049;-80
2023/06/11 00:46:22;;;;;;;10.43;9.43;;;;;;;19.25;61.75;98993.78;5008342;28;20083;-80
2023/06/11 00:48:51;;;;;;;10.25;9.18;;;;;;;19.20;62.14;99002.00;5008344;28;20095;-80
2023/06/11 00:51:24;;;;;;;13.52;10.02;;;;;;;19.02;62.51;98998.31;5008637;28;21509;-81
2023/06/11 00:53:51;;;;;;;13.15;11.27;;;;;;;18.10;66.40;99002.84;4993171;28;20064;-81
2023/06/11 00:56:17;;;;;;;13.52;11.10;;;;;;;17.89;66.71;98996.91;5006987;28;20033;-81
2023/06/11 00:58:45;;;;;;;11.07;9.98;;;;;;;18.50;64.09;99006.81;5009800;28;20116;-80
2023/06/11 01:01:15;;;;;;;12.50;10.98;;;;;;;18.87;63.15;98995.88;5001460;28;20462;-81
2023/06/11 01:03:41;;;;;;;13.07;11.45;;;;;;;17.87;67.17;98998.28;4977342;28;20071;-81
2023/06/11 01:06:13;;;;;;;12.45;11.15;;;;;;;17.88;65.80;98989.13;4992838;28;20405;-81
2023/06/11 01:08:39;;;;;;;12.15;10.85;;;;;;;18.14;65.44;98993.03;5006877;28;20033;-81
2023/06/11 01:11:08;;;;;;;13.10;11.80;;;;;;;17.34;68.13;98983.34;5003607;28;20100;-81
2023/06/11 01:13:37;;;;;;;13.00;11.60;;;;;;;17.25;67.96;98996.66;5019813;28;20037;-81
2023/06/11 01:16:19;;;;;;;12.93;11.55;;;;;;;17.48;66.96;98995.84;5000453;28;20402;-81
2023/06/11 01:19:03;;;;;;;12.43;10.68;;;;;;;18.56;63.50;99013.75;5002103;28;20156;-80
2023/06/11 01:21:38;;;;;;;11.80;10.65;;;;;;;18.52;63.34;99015.44;5007522;28;20018;-80
2023/06/11 01:24:11;;;;;;;11.27;10.15;;;;;;;18.51;63.88;99016.53;5001411;28;20079;-80
2023/06/11 01:27:06;;;;;;;12.07;10.32;;;;;;;18.35;64.43;99025.94;5003041;28;20454;-80
2023/06/11 01:29:35;;;;;;;11.73;10.52;;;;;;;18.38;64.13;99026.16;4997809;28;20048;-81
2023/06/11 01:32:02;;;;;;;13.98;12.57;;;;;;;17.85;66.61;99017.50;4986031;28;20046;-80
2023/06/11 01:34:28;;;;;;;13.10;11.80;;;;;;;18.29;65.05;99032.53;5010151;28;20084;-80
2023/06/11 01:36:54;;;;;;;14.27;10.73;;;;;;;18.22;64.71;99015.88;5005237;28;20025;-80
2023/06/11 01:39:19;;;;;;;12.48;10.98;;;;;;;18.44;63.40;99006.09;4972001;28;20053;-80
2023/06/11 01:41:45;;;;;;;12.60;10.40;;;;;;;18.51;62.85;99019.22;5003807;28;20494;-80
2023/06/11 01:44:12;;;;;;;13.55;11.27;;;;;;;18.60;63.45;99026.38;4992290;28;20030;-81
2023/06/11 01:46:37;;;;;;;15.13;10.73;;;;;;;18.67;63.37;99023.28;4991445;28;20026;-81
2023/06/11 01:49:02;;;;;;;11.38;10.27;;;;;;;18.59;63.20;99015.84;4990501;28;20490;-80
2023/06/11 01:51:28;;;;;;;11.25;10.25;;;;;;;18.67;63.10;99017.88;4992143;28;20030;-80
2023/06/11 01:53:55;;;;;;;12.05;10.88;;;;;;;18.51;63.36;99021.94;5011333;28;20030;-81
2023/06/11 01:56:20;;;;;;;16.88;12.40;;;;;;;18.25;64.06;99023.41;5012102;28;20034;-81
2023/06/11 01:58:46;;;;;;;11.23;10.13;;;;;;;18.45;63.66;99023.94;5011326;28;20452;-81
2023/06/11 02:01:12;;;;;;;15.60;13.55;;;;;;;17.68;66.96;99030.69;4997770;28;20030;-81
2023/06/11 02:03:38;;;;;;;12.85;9.77;;;;;;;18.20;64.40;99021.56;5013208;28;20021;-81
2023/06/11 02:06:07;;;;;;;16.42;11.07;;;;;;;17.98;65.11;99022.19;4994026;28;20131;-81
2023/06/11 02:08:32;;;;;;;12.13;10.90;;;;;;;18.24;63.60;99024.50;5011366;28;20025;-81
2023/06/11 02:10:57;;;;;;;14.43;12.05;;;;;;;17.85;65.05;99022.91;5010367;28;20022;-81
2023/06/11 02:13:25;;;;;;;12.05;10.80;;;;;;;17.92;65.21;99026.06;5010912;28;20045;-81
2023/06/11 02:15:50;;;;;;;12.95;10.77;;;;;;;17.95;64.85;99027.38;4991348;28;20061;-81
2023/06/11 02:18:16;;;;;;;10.80;9.77;;;;;;;18.24;63.99;99029.91;5005934;28;20057;-81
2023/06/11 02:20:41;;;;;;;10.88;9.63;;;;;;;18.25;64.13;99037.72;4999820;28;20034;-81
2023/06/11 02:23:07;;;;;;;11.85;9.98;;;;;;;18.24;63.55;99021.81;4993562;28;20042;-81
2023/06/11 02:25:32;;;;;;;11.15;9.82;;;;;;;18.27;63.57;99034.72;4989802;28;20042;-81
2023/06/11 02:27:57;;;;;;;12.98;11.75;;;;;;;17.68;66.01;99033.41;5007677;28;20042;-80
2023/06/11 02:30:23;;;;;;;13.35;10.57;;;;;;;17.36;66.83;99022.44;5010983;28;20083;-81
2023/06/11 02:32:48;;;;;;;11.38;10.20;;;;;;;17.88;64.37;99010.72;5007390;28;20105;-81
2023/06/11 02:35:13;;;;;;;11.52;10.23;;;;;;;18.06;64.24;99023.44;4990294;28;20044;-81
2023/06/11 02:37:39;;;;;;;12.52;9.98;;;;;;;18.22;63.52;99034.78;5006648;28;20077;-81
2023/06/11 02:40:05;;;;;;;11.82;10.38;;;;;;;18.05;63.95;99023.69;5009892;28;20061;-81
2023/06/11 02:42:30;;;;;;;11.30;9.88;;;;;;;18.04;64.45;99025.63;5007441;28;20034;-81
2023/06/11 02:44:55;;;;;;;11.75;10.40;;;;;;;18.07;63.80;99026.91;4989142;28;20041;-80
2023/06/11 02:47:21;;;;;;;12.75;10.88;;;;;;;18.08;64.01;99025.81;4995451;28;20133;-81
2023/06/11 02:49:46;;;;;;;11.75;10.65;;;;;;;18.03;63.84;99023.19;5016067;28;20396;-81
2023/06/11 02:52:12;;;;;;;11.70;10.50;;;;;;;17.95;64.16;99027.38;5009275;28;20033;-81
2023/06/11 02:54:37;;;;;;;11.48;10.45;;;;;;;18.02;63.95;99029.72;4982831;28;20601;-80
2023/06/11 02:57:03;;;;;;;11.73;10.52;;;;;;;17.92;64.04;99022.53;4994798;28;20112;-81
2023/06/11 02:59:28;;;;;;;11.55;10.18;;;;;;;17.90;64.27;99027.44;5007783;28;20034;-81
2023/06/11 03:01:54;;;;;;;11.77;10.55;;;;;;;17.92;64.18;99026.06;4993961;28;20026;-81
2023/06/11 03:04:20;;;;;;;13.15;10.68;;;;;;;18.01;64.14;99030.78;5010161;28;20649;-81
2023/06/11 03:06:45;;;;;;;15.25;11.23;;;;;;;17.97;63.88;99035.97;4993731;28;20030;-81
2023/06/11 03:09:10;;;;;;;12.48;10.63;;;;;;;17.84;64.53;99036.69;5005774;28;20147;-80
2023/06/11 03:11:36;;;;;;;14.68;10.77;;;;;;;17.82;64.71;99033.50;4989114;28;20030;-81
2023/06/11 03:14:01;;;;;;;10.93;9.90;;;;;;;17.86;64.38;99040.72;5008840;28;20083;-81
2023/06/11 03:16:27;;;;;;;12.02;10.75;;;;;;;17.72;64.49;99029.03;5007666;28;20096;-81
2023/06/11 03:18:52;;;;;;;12.10;10.48;;;;;;;17.65;65.02;99036.66;4990134;28;20038;-80
2023/06/11 03:21:17;;;;;;;11.65;10.45;;;;;;;17.24;66.12;99038.22;4988005;28;20018;-80
2023/06/11 03:23:43;;;;;;;13.40;11.35;;;;;;;17.32;65.72;99036.78;5004762;28;20038;-80
2023/06/11 03:26:08;;;;;;;12.85;11.00;;;;;;;16.93;67.67;99058.50;5004829;28;20037;-80
2023/06/11 03:28:33;;;;;;;13.90;12.25;;;;;;;16.89;67.93;99054.75;5008669;28;20632;-81
2023/06/11 03:30:59;;;;;;;12.25;10.95;;;;;;;17.35;66.22;99042.41;4970583;28;20107;-80
2023/06/11 03:33:25;;;;;;;15.23;11.85;;;;;;;17.04;67.31;99046.50;5002205;28;20026;-81
2023/06/11 03:35:51;;;;;;;13.27;11.85;;;;;;;17.11;67.09;99036.19;5004884;28;20030;-80
2023/06/11 03:38:16;;;;;;;11.63;10.43;;;;;;;16.63;68.92;99047.97;5010538;28;20094;-80
2023/06/11 03:40:42;;;;;;;13.77;12.10;;;;;;;16.74;68.52;99049.50;4977425;28;20034;-80
2023/06/11 03:43:07;;;;;;;14.38;11.20;;;;;;;16.65;68.26;99052.00;5006299;28;20038;-80
2023/06/11 03:45:33;;;;;;;12.52;11.25;;;;;;;17.33;66.32;99050.00;4989963;28;20472;-80
2023/06/11 03:47:58;;;;;;;11.68;10.60;;;;;;;17.55;65.25;99055.69;5009492;28;20049;-80
2023/06/11 03:50:24;;;;;;;14.38;11.95;;;;;;;17.25;66.86;99043.31;5004707;28;21082;-80
2023/06/11 03:52:49;;;;;;;17.38;12.77;;;;;;;16.46;70.45;99049.19;4990016;28;20030;-80
2023/06/11 03:55:15;;;;;;;13.93;12.45;;;;;;;16.46;70.26;99057.25;5006251;28;20044;-81
2023/06/11 03:57:40;;;;;;;15.48;12.90;;;;;;;16.03;72.69;99060.75;5010695;28;20148;-80
2023/06/11 04:00:07;;;;;;;13.98;12.55;;;;;;;16.22;71.82;99053.66;4990409;28;20371;-80
2023/06/11 04:02:34;;;;;;;16.88;13.27;;;;;;;16.01;73.23;99057.53;5003201;28;20394;-80
2023/06/11 04:05:00;;;;;;;15.38;13.57;;;;;;;15.64;75.66;99068.78;4988163;28;20038;-80
2023/06/11 04:07:26;;;;;;;13.98;12.57;;;;;;;15.73;74.70;99059.06;5006104;28;20105;-80
2023/06/11 04:09:51;;;;;;;13.38;11.68;;;;;;;16.66;69.74;99060.91;5002145;28;20112;-81
2023/06/11 04:12:17;;;;;;;13.05;11.68;;;;;;;17.27;66.90;99058.41;5004793;28;20056;-80
2023/06/11 04:14:42;;;;;;;12.15;10.80;;;;;;;17.37;66.92;99058.28;4988570;28;20049;-80
2023/06/11 04:17:07;;;;;;;12.18;10.88;;;;;;;17.82;65.71;99066.69;5008544;28;20067;-81
2023/06/11 04:19:33;;;;;;;12.43;11.25;;;;;;;17.55;68.10;99066.50;5004304;28;20026;-81
2023/06/11 04:21:58;;;;;;;11.60;10.60;;;;;;;17.85;65.70;99066.09;5003066;28;20036;-81
2023/06/11 04:24:24;;;;;;;11.70;10.45;;;;;;;17.92;65.79;99047.66;5004718;28;20038;-81
2023/06/11 04:26:51;;;;;;;12.73;11.07;;;;;;;17.55;69.00;99061.09;4985280;28;20088;-79
2023/06/11 04:29:18;;;;;;;14.68;12.73;;;;;;;17.45;71.56;99068.47;4982114;28;20108;-79
2023/06/11 04:31:46;;;;;;;13.20;10.75;;;;;;;17.62;67.91;99075.06;4984040;28;20029;-79
2023/06/11 04:34:12;;;;;;;15.32;13.80;;;;;;;17.42;72.56;99069.84;5000801;28;20059;-79
2023/06/11 04:36:40;;;;;;;14.05;12.63;;;;;;;17.35;73.44;99065.88;5006638;28;20033;-79
2023/06/11 04:39:06;;;;;;;17.63;15.63;;;;;;;17.27;74.01;99069.22;5017690;28;20034;-79
2023/06/11 04:41:31;;;;;;;18.25;16.27;;;;;;;17.09;75.25;99057.25;5004896;28;20142;-79
2023/06/11 04:44:00;;;;;;;16.65;14.48;;;;;;;17.27;75.22;99063.81;5002550;28;20060;-78
2023/06/11 04:46:26;;;;;;;17.83;15.93;;;;;;;17.35;74.77;99073.97;5002313;28;20466;-79
2023/06/11 04:48:53;;;;;;;18.30;16.40;;;;;;;17.31;74.94;99064.84;5007243;28;20084;-79
2023/06/11 04:51:20;;;;;;;17.00;15.43;;;;;;;17.46;73.99;99061.97;5005959;28;20030;-78
2023/06/11 04:53:46;;;;;;;16.80;14.73;;;;;;;17.52;73.33;99058.97;5009118;28;20502;-79
2023/06/11 04:56:11;;;;;;;15.20;13.60;;;;;;;17.70;73.44;99065.50;5010591;28;20036;-79
2023/06/11 04:58:37;;;;;;;17.23;15.52;;;;;;;17.70;73.20;99058.22;5008200;28;20034;-79
2023/06/11 05:01:05;;;;;;;17.42;14.80;;;;;;;17.84;73.26;99050.97;5003738;28;20691;-79
2023/06/11 05:03:36;;;;;;;17.73;15.48;;;;;;;18.03;72.59;99066.41;5005736;28;20030;-80
2023/06/11 05:06:02;;;;;;;15.95;14.38;;;;;;;18.12;72.34;99051.16;5006724;28;20399;-80
2023/06/11 05:08:28;;;;;;;16.13;13.68;;;;;;;18.27;72.57;99056.34;4996222;28;20111;-80
2023/06/11 05:10:59;;;;;;;13.82;12.48;;;;;;;18.52;71.07;99064.88;5004093;28;20552;-80
2023/06/11 05:13:26;;;;;;;12.18;11.02;;;;;;;19.33;64.06;99063.50;5003714;28;20100;-80
2023/06/11 05:15:55;;;;;;;15.00;13.35;;;;;;;19.20;66.45;99067.75;5005998;28;20660;-80
2023/06/11 05:18:21;;;;;;;12.68;11.18;;;;;;;19.34;64.74;99049.69;5005374;28;20446;-80
2023/06/11 05:20:48;;;;;;;13.20;11.85;;;;;;;19.36;67.00;99063.72;5004652;28;20159;-80
2023/06/11 05:23:14;;;;;;;18.10;14.98;;;;;;;19.12;69.48;99054.94;5004840;28;20036;-80
2023/06/11 05:25:46;;;;;;;13.27;11.98;;;;;;;19.37;65.42;99057.19;5006805;28;20026;-80
2023/06/11 05:28:15;;;;;;;15.20;13.60;;;;;;;19.24;69.81;99059.88;4988703;28;20037;-80
2023/06/11 05:30:43;;;;;;;17.20;15.40;;;;;;;18.77;72.03;99054.75;4996141;28;20390;-80
2023/06/11 05:33:10;;;;;;;13.35;12.15;;;;;;;19.33;67.37;99052.66;5002404;28;20128;-80
2023/06/11 05:35:36;;;;;;;12.88;11.57;;;;;;;19.88;63.88;99061.56;5004887;28;20034;-80
2023/06/11 05:38:03;;;;;;;21.45;15.55;;;;;;;19.00;71.76;99059.22;5005814;28;20038;-80
2023/06/11 05:40:29;;;;;;;17.58;15.15;;;;;;;18.77;72.55;99070.97;4991204;28;20087;-80
2023/06/11 05:42:55;;;;;;;14.50;11.48;;;;;;;19.02;68.42;99065.94;4988648;28;20032;-80
2023/06/11 05:45:20;;;;;;;16.98;14.73;;;;;;;19.30;71.26;99072.19;4987509;28;20045;-80
2023/06/11 05:47:45;;;;;;;17.08;14.93;;;;;;;18.98;72.37;99067.63;5000132;28;20164;-80
2023/06/11 05:50:11;;;;;;;18.38;15.55;;;;;;;18.82;74.09;99079.81;5003424;28;20030;-80
2023/06/11 05:52:37;;;;;;;13.07;11.65;;;;;;;19.17;67.43;99070.28;5004398;28;20053;-80
2023/06/11 05:55:03;;;;;;;14.05;12.55;;;;;;;19.51;67.18;99062.59;4973790;28;20048;-80
2023/06/11 05:57:29;;;;;;;14.20;11.90;;;;;;;19.38;68.24;99075.03;5003609;28;20034;-80
2023/06/11 05:59:54;;;;;;;12.52;11.32;;;;;;;20.14;63.67;99078.88;5001120;28;20029;-80
2023/06/11 06:02:19;;;;;;;17.88;14.27;;;;;;;19.58;68.84;99083.88;5005403;28;20029;-80
2023/06/11 06:04:48;;;;;;;12.25;10.95;;;;;;;20.26;63.29;99090.03;5001069;28;20117;-80
2023/06/11 06:07:15;;;;;;;13.75;12.35;;;;;;;20.07;65.15;99089.34;5011239;28;20512;-80
2023/06/11 06:09:40;;;;;;;16.88;13.20;;;;;;;19.99;66.56;99087.34;5000670;28;20034;-80
2023/06/11 06:12:06;;;;;;;13.98;11.35;;;;;;;20.00;64.66;99089.75;5003326;28;20092;-80
2023/06/11 06:14:32;;;;;;;12.82;10.77;;;;;;;19.94;65.22;99082.03;5001876;28;20493;-80
2023/06/11 06:16:58;;;;;;;12.05;10.90;;;;;;;20.33;63.06;99079.56;5000833;28;20052;-80
2023/06/11 06:19:23;;;;;;;17.45;11.60;;;;;;;20.69;62.14;99096.59;5001655;28;20129;-80
2023/06/11 06:21:48;;;;;;;13.75;11.90;;;;;;;20.60;62.89;99086.78;5002444;28;20038;-80
2023/06/11 06:24:14;;;;;;;12.15;10.23;;;;;;;20.71;62.37;99086.25;4981044;28;20042;-80
2023/06/11 06:26:40;;;;;;;13.85;12.32;;;;;;;20.88;61.72;99091.00;4997829;28;20037;-80
2023/06/11 06:29:15;;;;;;;12.38;11.07;;;;;;;20.96;61.27;99089.44;5000209;28;20906;-80
2023/06/11 06:31:40;;;;;;;11.90;10.75;;;;;;;20.89;61.71;99098.81;5027264;28;20401;-80
2023/06/11 06:34:07;;;;;;;12.38;11.07;;;;;;;20.97;61.86;99094.53;5003224;28;20270;-80
2023/06/11 06:36:32;;;;;;;18.50;13.32;;;;;;;20.89;64.46;99092.59;4999165;28;20036;-80
2023/06/11 06:38:58;;;;;;;16.33;13.60;;;;;;;20.61;64.22;99088.41;4984439;28;20041;-80
2023/06/11 06:41:23;;;;;;;15.10;13.10;;;;;;;19.98;63.68;99080.31;4998899;28;20034;-80
2023/06/11 06:43:49;;;;;;;15.43;13.48;;;;;;;19.75;64.13;99090.28;4986605;28;21379;-80
2023/06/11 06:46:15;;;;;;;17.88;14.10;;;;;;;19.83;65.87;99083.38;5001044;28;20136;-80
2023/06/11 06:48:40;;;;;;;12.80;11.10;;;;;;;20.06;64.77;99093.16;5003413;28;20034;-80
2023/06/11 06:51:05;;;;;;;12.32;10.73;;;;;;;20.49;63.28;99093.56;5003692;28;20041;-80
2023/06/11 06:53:31;;;;;;;14.30;11.13;;;;;;;20.98;61.54;99098.06;4986226;28;20045;-80
2023/06/11 06:56:00;;;;;;;14.60;12.73;;;;;;;20.78;63.71;99100.19;4987667;28;20081;-79
2023/06/11 06:58:28;;;;;;;16.02;14.23;;;;;;;20.66;63.77;99097.19;4992663;28;20040;-80
2023/06/11 07:00:54;;;;;;;13.35;12.05;;;;;;;20.84;62.83;99098.13;5010742;28;20366;-80
2023/06/11 07:03:21;;;;;;;11.90;10.57;;;;;;;21.19;61.38;99105.41;5008818;28;20677;-81
2023/06/11 07:05:46;;;;;;;13.60;12.15;;;;;;;21.30;62.97;99103.22;5009183;28;20038;-80
2023/06/11 07:08:12;;;;;;;16.48;13.05;;;;;;;20.48;62.28;99095.50;5008288;28;20060;-80
2023/06/11 07:10:41;;;;;;;15.07;12.23;;;;;;;20.80;63.73;99106.09;5003168;28;20022;-80
2023/06/11 07:13:10;;;;;;;18.50;13.38;;;;;;;20.53;62.22;99100.78;4991140;28;20042;-80
2023/06/11 07:15:35;;;;;;;16.42;13.18;;;;;;;20.42;62.50;99102.13;5007824;28;20027;-80
2023/06/11 07:18:00;;;;;;;16.88;13.07;;;;;;;20.56;61.72;99107.50;5006570;28;20458;-80
2023/06/11 07:20:26;;;;;;;15.90;12.18;;;;;;;20.64;61.93;99109.50;4989727;28;20034;-79
2023/06/11 07:22:51;;;;;;;20.63;12.90;;;;;;;20.72;62.79;99109.56;5008317;28;20084;-80
2023/06/11 07:25:17;;;;;;;12.68;11.35;;;;;;;20.92;62.18;99111.75;5006373;28;20050;-80
2023/06/11 07:27:43;;;;;;;12.73;10.60;;;;;;;21.37;60.86;99106.28;5002260;28;20098;-80
2023/06/11 07:30:09;;;;;;;15.90;11.35;;;;;;;21.27;61.62;99110.09;5011252;28;20616;-80
2023/06/11 07:32:36;;;;;;;11.45;10.30;;;;;;;21.31;60.58;99107.56;5001148;28;20555;-80
2023/06/11 07:35:01;;;;;;;15.10;12.57;;;;;;;20.90;61.34;99102.34;5009958;28;20038;-79
2023/06/11 07:37:27;;;;;;;16.77;12.13;;;;;;;21.27;61.87;99106.56;4977175;28;20030;-79
2023/06/11 07:39:52;;;;;;;12.18;10.98;;;;;;;21.20;61.42;99100.78;5009975;28;20049;-79
2023/06/11 07:42:18;;;;;;;11.98;10.25;;;;;;;21.35;61.48;99097.66;5008122;28;20057;-79
2023/06/11 07:44:44;;;;;;;13.32;10.63;;;;;;;21.74;59.33;99094.13;5001518;28;20042;-79
2023/06/11 07:47:09;;;;;;;15.48;10.50;;;;;;;21.38;61.35;99102.47;5002382;28;20029;-79
2023/06/11 07:49:35;;;;;;;13.23;11.55;;;;;;;21.35;60.16;99109.34;5003601;28;20037;-79
2023/06/11 07:52:00;;;;;;;12.05;10.85;;;;;;;21.79;60.18;99089.38;5012840;28;20030;-80
2023/06/11 07:54:26;;;;;;;11.43;10.30;;;;;;;22.10;60.60;99101.00;5004080;28;20064;-80
2023/06/11 07:56:52;;;;;;;16.17;9.95;;;;;;;21.93;56.74;99106.38;4990220;28;20029;-79
2023/06/11 07:59:17;;;;;;;11.38;9.70;;;;;;;21.89;58.70;99105.41;5010343;28;20397;-79
2023/06/11 08:01:42;;;;;;;12.90;9.60;;;;;;;22.33;56.57;99099.72;5001824;28;20040;-79
2023/06/11 08:04:08;;;;;;;13.85;9.43;;;;;;;22.29;57.96;99108.84;4986381;28;20506;-79
2023/06/11 08:06:35;;;;;;;12.80;9.55;;;;;;;22.38;55.21;99096.06;5005444;28;20115;-80
2023/06/11 08:09:00;;;;;;;9.80;8.50;;;;;;;22.65;56.29;99097.69;4990592;28;20556;-81
2023/06/11 08:11:26;;;;;;;10.75;8.38;;;;;;;22.43;56.57;99104.06;4998545;28;20116;-80
2023/06/11 08:13:52;;;;;;;11.43;9.43;;;;;;;22.74;54.14;99101.97;5002650;28;20201;-80
2023/06/11 08:16:18;;;;;;;13.98;9.25;;;;;;;22.60;55.51;99095.13;4979354;28;22333;-80
2023/06/11 08:18:43;;;;;;;12.60;9.93;;;;;;;22.87;55.43;99101.00;4999034;28;20026;-80
2023/06/11 08:21:09;;;;;;;15.23;9.57;;;;;;;22.68;56.37;99089.66;4981523;28;20021;-80
2023/06/11 08:23:37;;;;;;;10.68;7.22;;;;;;;22.55;54.07;99077.00;4996744;28;20030;-80
2023/06/11 08:26:03;;;;;;;9.18;8.25;;;;;;;22.53;52.56;99078.44;4991888;28;20038;-80
2023/06/11 08:28:28;;;;;;;11.45;7.78;;;;;;;22.83;52.88;99097.34;4997992;28;20532;-80
2023/06/11 08:30:54;;;;;;;14.50;8.13;;;;;;;22.80;52.04;99086.31;4982695;28;20124;-80
2023/06/11 08:33:20;;;;;;;11.65;8.20;;;;;;;22.96;51.61;99090.91;4996378;28;20030;-81
2023/06/11 08:35:45;;;;;;;9.38;7.22;;;;;;;23.22;52.40;99077.22;5000995;28;20029;-80
2023/06/11 08:38:11;;;;;;;10.40;7.50;;;;;;;23.21;51.06;99089.25;5003602;28;20112;-79
2023/06/11 08:40:40;;;;;;;9.85;7.78;;;;;;;23.36;50.04;99080.59;4998804;28;20034;-79
2023/06/11 08:43:05;;;;;;;10.68;6.97;;;;;;;23.22;47.58;99082.66;4995571;28;20030;-79
2023/06/11 08:45:30;;;;;;;8.73;6.93;;;;;;;23.26;47.33;99082.84;4988012;28;20561;-80
2023/06/11 08:47:58;;;;;;;10.52;6.45;;;;;;;23.64;49.04;99081.75;4995588;28;20104;-80
2023/06/11 08:50:24;;;;;;;12.77;7.28;;;;;;;23.57;46.98;99076.00;5004704;28;20465;-79
2023/06/11 08:52:51;;;;;;;8.07;5.82;;;;;;;23.78;45.97;99076.88;5007255;28;20025;-79
2023/06/11 08:55:17;;;;;;;6.63;5.43;;;;;;;23.50;43.13;99075.69;5004492;28;20107;-79
2023/06/11 08:57:43;;;;;;;7.18;5.60;;;;;;;23.77;44.77;99083.44;5008869;28;20026;-80
2023/06/11 09:00:12;;;;;;;15.70;6.30;;;;;;;23.95;45.71;99086.88;5004893;28;20038;-80
2023/06/11 09:02:38;;;;;;;9.63;6.07;;;;;;;23.87;44.39;99068.63;5006892;28;20026;-80
2023/06/11 09:05:04;;;;;;;7.03;5.53;;;;;;;23.89;46.17;99077.28;4998956;28;20029;-80
2023/06/11 09:07:29;;;;;;;9.77;5.82;;;;;;;24.06;46.82;99079.13;5004959;28;20025;-80
2023/06/11 09:10:09;;;;;;;7.90;5.97;;;;;;;23.93;44.06;99064.56;5011461;28;20029;-80
2023/06/11 09:12:34;;;;;;;9.85;6.53;;;;;;;24.19;46.68;99064.44;5005557;28;20026;-81
2023/06/11 09:15:00;;;;;;;8.98;6.30;;;;;;;24.45;47.95;99078.66;5004489;28;20033;-80
2023/06/11 09:17:36;;;;;;;9.40;6.32;;;;;;;24.14;45.61;99062.69;4998295;28;20026;-80
2023/06/11 09:20:04;;;;;;;9.00;5.55;;;;;;;24.39;47.81;99075.34;5001145;28;20034;-80
2023/06/11 09:22:30;;;;;;;10.63;5.25;;;;;;;24.44;45.99;99075.13;4997018;28;20026;-80
2023/06/11 09:24:55;;;;;;;10.10;6.35;;;;;;;24.40;42.78;99065.22;5000964;28;20743;-80
2023/06/11 09:27:22;;;;;;;9.02;6.28;;;;;;;24.23;43.03;99057.16;4997535;28;20494;-80
2023/06/11 09:29:47;;;;;;;12.45;6.80;;;;;;;24.60;47.12;99067.13;4994803;28;20446;-80
2023/06/11 09:32:14;;;;;;;6.90;6.20;;;;;;;24.59;44.81;99062.81;4991921;28;20030;-80
2023/06/11 09:34:39;;;;;;;10.70;5.80;;;;;;;24.69;44.83;99061.59;4993476;28;20080;-80
2023/06/11 09:37:09;;;;;;;6.70;5.93;;;;;;;24.74;45.55;99054.00;5002773;28;20351;-80
2023/06/11 09:39:35;;;;;;;7.07;5.78;;;;;;;24.43;43.77;99053.66;4988182;28;20133;-80
2023/06/11 09:42:00;;;;;;;9.35;6.28;;;;;;;24.37;41.68;99074.09;5003211;28;20112;-80
2023/06/11 09:44:28;;;;;;;13.85;6.32;;;;;;;24.46;41.91;99064.69;4995720;28;20026;-80
2023/06/11 09:46:55;;;;;;;10.88;5.85;;;;;;;24.50;42.35;99059.38;5005956;28;20129;-81
2023/06/11 09:49:22;;;;;;;6.47;5.82;;;;;;;24.74;44.40;99062.19;4978283;28;20119;-81
2023/06/11 09:51:49;;;;;;;11.98;6.72;;;;;;;25.05;46.14;99059.03;5003176;28;20577;-81
2023/06/11 09:54:15;;;;;;;12.63;5.72;;;;;;;24.76;42.19;99057.22;5004788;28;20140;-82
2023/06/11 09:56:42;;;;;;;14.40;7.10;;;;;;;25.40;47.05;99064.88;5003278;28;20038;-82
2023/06/11 09:59:10;;;;;;;9.90;5.82;;;;;;;25.55;45.02;99062.31;4987069;28;20429;-81
2023/06/11 10:01:36;;;;;;;13.23;6.68;;;;;;;25.54;42.01;99057.16;4993790;28;21148;-82
2023/06/11 10:04:01;;;;;;;12.90;6.43;;;;;;;25.51;41.85;99066.84;4966314;28;20109;-82
2023/06/11 10:06:41;;;;;;;10.82;5.85;;;;;;;25.41;45.81;99063.72;4997152;28;20099;-80
2023/06/11 10:09:11;;;;;;;8.00;6.40;;;;;;;25.27;41.46;99061.34;5006425;28;20080;-81
2023/06/11 10:11:38;;;;;;;8.57;6.22;;;;;;;25.27;42.77;99067.59;4980445;28;20034;-82
2023/06/11 10:14:05;;;;;;;6.85;5.45;;;;;;;25.31;43.57;99065.75;5007367;28;20399;-81
2023/06/11 10:16:34;;;;;;;9.63;6.03;;;;;;;25.10;42.87;99056.84;4993361;28;20031;-81
2023/06/11 10:19:10;;;;;;;6.63;5.80;;;;;;;25.36;44.98;99069.44;5009019;28;20041;-81
2023/06/11 10:21:44;;;;;;;12.20;6.93;;;;;;;25.61;43.37;99065.59;4991374;28;20358;-80
2023/06/11 10:24:26;;;;;;;10.57;6.72;;;;;;;25.70;43.22;99047.13;5010094;28;20429;-82
2023/06/11 10:27:04;;;;;;;9.93;6.68;;;;;;;25.35;39.84;99060.44;5012550;28;20025;-81
2023/06/11 10:29:39;;;;;;;12.65;6.03;;;;;;;25.27;40.13;99050.41;5002361;28;20078;-81
2023/06/11 10:32:19;;;;;;;7.03;5.65;;;;;;;25.60;42.27;99064.03;5007114;28;20066;-82
2023/06/11 10:34:47;;;;;;;10.50;6.28;;;;;;;25.83;39.44;99049.53;5005892;28;20036;-81
2023/06/11 10:37:13;;;;;;;9.57;5.43;;;;;;;26.36;39.53;99042.94;4998613;28;20040;-81
2023/06/11 10:40:00;;;;;;;8.40;6.50;;;;;;;25.83;41.67;99051.47;5009260;28;20029;-81
2023/06/11 10:42:36;;;;;;;11.15;6.13;;;;;;;25.59;43.26;99037.81;5020086;28;20525;-82
2023/06/11 10:45:10;;;;;;;8.98;6.03;;;;;;;25.96;43.41;99036.63;5002875;28;20026;-82
2023/06/11 10:47:51;;;;;;;7.38;5.60;;;;;;;26.26;38.83;99039.88;5010574;28;20025;-82
2023/06/11 10:50:25;;;;;;;6.85;5.88;;;;;;;25.92;38.34;99054.88;5006919;28;20157;-82
2023/06/11 10:52:58;;;;;;;7.13;6.20;;;;;;;26.06;38.61;99055.28;5009790;28;20033;-82
2023/06/11 10:55:29;;;;;;;6.68;5.70;;;;;;;25.77;37.97;99052.84;5007817;28;20640;-82
2023/06/11 10:57:55;;;;;;;8.30;5.75;;;;;;;26.07;41.24;99045.94;5008822;28;20171;-82
2023/06/11 11:00:21;;;;;;;16.17;6.32;;;;;;;26.35;37.70;99049.56;4992290;28;20397;-82
2023/06/11 11:02:48;;;;;;;9.07;6.00;;;;;;;26.16;38.35;99043.09;5004900;28;20390;-82
2023/06/11 11:05:13;;;;;;;9.85;6.22;;;;;;;25.86;37.88;99048.06;5010063;28;20070;-82
2023/06/11 11:07:39;;;;;;;9.13;5.97;;;;;;;26.24;37.46;99039.44;5013183;28;20116;-82
2023/06/11 11:10:06;;;;;;;8.77;5.90;;;;;;;26.28;40.41;99052.06;5009835;28;20036;-82
2023/06/11 11:12:41;;;;;;;7.10;5.70;;;;;;;26.37;38.67;99051.94;5012002;28;20038;-82
2023/06/11 11:15:07;;;;;;;10.15;5.68;;;;;;;26.02;41.04;99044.25;5007628;28;20030;-81
2023/06/11 11:17:33;;;;;;;15.00;6.22;;;;;;;26.19;37.96;99047.91;5010145;28;20037;-82
2023/06/11 11:19:59;;;;;;;7.72;5.57;;;;;;;25.87;40.67;99044.16;5009617;28;20516;-82
2023/06/11 11:22:30;;;;;;;6.78;5.38;;;;;;;26.43;41.49;99048.59;5010448;28;20018;-82